createdAt,value
2022-12-18T00:01:39.590Z,3.20
2022-12-18T00:04:09.048Z,3.80
2022-12-18T00:06:36.626Z,4.40
2022-12-18T00:09:04.296Z,3.70
2022-12-18T00:11:32.014Z,3.00
2022-12-18T00:14:00.571Z,3.60
2022-12-18T00:16:31.127Z,3.50
2022-12-18T00:19:00.182Z,4.20
2022-12-18T00:21:28.423Z,3.80
2022-12-18T00:23:55.266Z,3.30
2022-12-18T00:26:25.662Z,3.20
2022-12-18T00:28:53.167Z,3.50
2022-12-18T00:31:23.747Z,3.30
2022-12-18T00:33:53.986Z,3.30
2022-12-18T00:36:25.284Z,2.70
2022-12-18T00:38:53.700Z,2.50
2022-12-18T00:41:38.984Z,2.70
2022-12-18T00:44:08.048Z,2.70
2022-12-18T00:46:34.786Z,1.90
2022-12-18T00:49:01.540Z,2.20
2022-12-18T00:51:29.698Z,2.40
2022-12-18T00:53:56.979Z,2.40
2022-12-18T00:56:24.433Z,3.40
2022-12-18T00:58:51.174Z,2.80
2022-12-18T01:01:18.472Z,3.90
2022-12-18T01:03:47.670Z,4.40
2022-12-18T01:06:16.830Z,4.30
2022-12-18T01:08:43.624Z,3.80
2022-12-18T01:11:14.215Z,3.50
2022-12-18T01:13:40.967Z,3.10
2022-12-18T01:16:09.876Z,3.30
2022-12-18T01:18:36.793Z,4.00
2022-12-18T01:21:10.700Z,3.80
2022-12-18T01:23:37.799Z,3.60
2022-12-18T01:26:26.130Z,3.70
2022-12-18T01:28:54.769Z,3.50
2022-12-18T01:31:23.091Z,3.30
2022-12-18T01:33:50.913Z,3.70
2022-12-18T01:36:31.230Z,4.10
2022-12-18T01:39:05.468Z,3.80
2022-12-18T01:41:56.087Z,3.40
2022-12-18T01:44:42.623Z,3.80
2022-12-18T01:47:22.641Z,3.60
2022-12-18T01:49:49.357Z,3.60
2022-12-18T01:52:16.756Z,4.60
2022-12-18T01:54:43.919Z,5.00
2022-12-18T01:57:10.695Z,4.60
2022-12-18T01:59:39.203Z,5.10
2022-12-18T02:02:07.375Z,5.30
2022-12-18T02:04:34.311Z,5.40
2022-12-18T02:07:27.460Z,5.40
2022-12-18T02:10:08.479Z,5.50
2022-12-18T02:13:08.550Z,5.40
2022-12-18T02:16:08.172Z,5.50
2022-12-18T02:18:38.698Z,5.50
2022-12-18T02:21:42.713Z,5.50
2022-12-18T02:24:24.192Z,5.70
2022-12-18T02:27:01.044Z,5.60
2022-12-18T02:29:33.893Z,5.50
2022-12-18T02:32:01.120Z,5.70
2022-12-18T02:34:31.235Z,5.70
2022-12-18T02:37:00.851Z,5.60
2022-12-18T02:39:30.343Z,5.50
2022-12-18T02:42:00.486Z,5.50
2022-12-18T02:44:27.470Z,5.60
2022-12-18T02:46:55.428Z,5.60
2022-12-18T02:49:45.498Z,5.70
2022-12-18T02:52:42.783Z,5.60
2022-12-18T02:55:16.902Z,5.50
2022-12-18T02:58:02.358Z,5.60
2022-12-18T03:00:54.119Z,5.60
2022-12-18T03:03:31.192Z,5.40
2022-12-18T03:06:44.059Z,5.50
2022-12-18T03:09:19.024Z,5.50
2022-12-18T03:12:21.217Z,5.70
2022-12-18T03:14:53.140Z,5.80
2022-12-18T03:17:23.202Z,5.70
2022-12-18T03:20:03.203Z,5.60
2022-12-18T03:22:33.092Z,5.60
2022-12-18T03:25:03.970Z,5.60
2022-12-18T03:27:34.333Z,5.60
2022-12-18T03:30:09.611Z,5.50
2022-12-18T03:33:00.561Z,5.30
2022-12-18T03:35:32.336Z,5.40
2022-12-18T03:37:59.010Z,5.50
2022-12-18T03:40:34.929Z,5.50
2022-12-18T03:43:15.254Z,5.50
2022-12-18T03:46:03.076Z,5.50
2022-12-18T03:48:38.842Z,5.60
2022-12-18T03:51:26.023Z,5.70
2022-12-18T03:54:01.495Z,5.60
2022-12-18T03:56:32.775Z,5.60
2022-12-18T03:59:02.206Z,5.60
2022-12-18T04:01:35.902Z,5.50
2022-12-18T04:04:04.684Z,5.80
2022-12-18T04:06:32.640Z,5.80
2022-12-18T04:09:00.034Z,5.70
2022-12-18T04:11:26.937Z,5.50
2022-12-18T04:13:58.470Z,5.50
2022-12-18T04:16:26.609Z,5.20
2022-12-18T04:18:54.327Z,5.40
2022-12-18T04:21:21.867Z,5.40
2022-12-18T04:23:48.599Z,5.50
2022-12-18T04:26:15.222Z,5.40
2022-12-18T04:28:41.897Z,5.30
2022-12-18T04:31:08.645Z,5.50
2022-12-18T04:33:35.363Z,5.50
2022-12-18T04:36:02.097Z,5.70
2022-12-18T04:38:28.745Z,5.80
2022-12-18T04:40:55.505Z,5.60
2022-12-18T04:43:23.257Z,5.80
2022-12-18T04:45:49.940Z,5.80
2022-12-18T04:48:17.180Z,5.80
2022-12-18T04:50:43.868Z,6.00
2022-12-18T04:53:10.627Z,5.80
2022-12-18T04:55:37.375Z,5.80
2022-12-18T04:58:04.163Z,5.80
2022-12-18T05:00:31.938Z,6.20
2022-12-18T05:03:28.844Z,5.80
2022-12-18T05:05:55.529Z,5.80
2022-12-18T05:08:22.374Z,5.70
2022-12-18T05:10:49.124Z,5.60
2022-12-18T05:13:15.785Z,5.50
2022-12-18T05:15:42.947Z,5.50
2022-12-18T05:18:10.042Z,5.50
2022-12-18T05:20:36.716Z,5.40
2022-12-18T05:23:03.352Z,5.80
2022-12-18T05:25:30.085Z,5.60
2022-12-18T05:27:57.415Z,5.40
2022-12-18T05:30:24.706Z,5.60
2022-12-18T05:32:51.402Z,5.80
2022-12-18T05:35:19.441Z,5.60
2022-12-18T05:37:46.174Z,5.60
2022-12-18T05:40:13.511Z,5.50
2022-12-18T05:42:40.358Z,5.30
2022-12-18T05:45:07.766Z,5.40
2022-12-18T05:47:34.514Z,5.20
2022-12-18T05:50:01.182Z,5.40
2022-12-18T05:52:29.830Z,5.60
2022-12-18T05:54:56.631Z,5.50
2022-12-18T05:57:23.281Z,5.70
2022-12-18T05:59:49.940Z,5.70
2022-12-18T06:02:16.784Z,5.50
2022-12-18T06:04:43.696Z,5.40
2022-12-18T06:07:10.414Z,5.50
2022-12-18T06:09:37.210Z,5.40
2022-12-18T06:12:04.100Z,6.10
2022-12-18T06:14:30.883Z,2.50
2022-12-18T06:17:13.989Z,-1.70
2022-12-18T06:19:40.714Z,-2.70
2022-12-18T06:22:07.359Z,-3.10
2022-12-18T06:24:34.120Z,-3.20
2022-12-18T06:27:00.846Z,-3.30
2022-12-18T06:29:27.476Z,-3.20
2022-12-18T06:31:54.270Z,-3.50
2022-12-18T06:34:21.056Z,-3.60
2022-12-18T06:36:47.801Z,-3.60
2022-12-18T06:39:15.278Z,-3.40
2022-12-18T06:41:42.202Z,-3.50
2022-12-18T06:44:10.995Z,-3.80
2022-12-18T06:46:38.947Z,-3.90
2022-12-18T06:49:10.156Z,-4.00
2022-12-18T06:51:37.033Z,-4.20
2022-12-18T06:54:04.103Z,-4.20
2022-12-18T06:56:31.209Z,-4.30
2022-12-18T06:58:57.876Z,-4.20
2022-12-18T07:01:24.698Z,-4.10
2022-12-18T07:03:56.186Z,-4.10
2022-12-18T07:06:25.145Z,-4.10
2022-12-18T07:08:55.179Z,-4.00
2022-12-18T07:11:21.933Z,-4.10
2022-12-18T07:13:48.965Z,-3.90
2022-12-18T07:16:25.526Z,-3.90
2022-12-18T07:18:54.902Z,-3.70
2022-12-18T07:21:22.196Z,-3.80
2022-12-18T07:23:49.397Z,-3.50
2022-12-18T07:26:18.850Z,-3.30
2022-12-18T07:28:48.434Z,-3.70
2022-12-18T07:31:22.067Z,-3.90
2022-12-18T07:33:49.500Z,-4.00
2022-12-18T07:36:16.490Z,-3.90
2022-12-18T07:38:43.926Z,-4.00
2022-12-18T07:41:13.632Z,-3.90
2022-12-18T07:43:42.037Z,-3.90
2022-12-18T07:46:10.445Z,-4.00
2022-12-18T07:48:38.444Z,-4.00
2022-12-18T07:51:07.577Z,-3.90
2022-12-18T07:53:35.626Z,-3.80
2022-12-18T07:56:26.488Z,-3.70
2022-12-18T07:58:52.776Z,-3.90
2022-12-18T08:01:19.528Z,-3.60
2022-12-18T08:03:48.081Z,-3.70
2022-12-18T08:06:15.004Z,-3.60
2022-12-18T08:08:43.268Z,-3.70
2022-12-18T08:11:09.974Z,-3.70
2022-12-18T08:13:37.061Z,-3.60
2022-12-18T08:16:06.652Z,-3.20
2022-12-18T08:18:52.975Z,-3.60
2022-12-18T08:21:24.094Z,-3.60
2022-12-18T08:23:52.793Z,-3.30
2022-12-18T08:26:22.859Z,-3.40
2022-12-18T08:28:51.448Z,-3.40
2022-12-18T08:31:19.138Z,-3.30
2022-12-18T08:33:46.076Z,-3.30
2022-12-18T08:36:15.825Z,-3.50
2022-12-18T08:38:42.634Z,-3.40
2022-12-18T08:41:11.964Z,-3.40
2022-12-18T08:43:57.717Z,-3.10
2022-12-18T08:46:29.648Z,-2.40
2022-12-18T08:48:57.029Z,-2.50
2022-12-18T08:51:33.789Z,-2.60
2022-12-18T08:54:00.989Z,-2.30
2022-12-18T08:56:27.991Z,-2.60
2022-12-18T08:58:55.830Z,-2.30
2022-12-18T09:01:23.258Z,-2.70
2022-12-18T09:03:51.185Z,-2.70
2022-12-18T09:06:19.709Z,-2.80
2022-12-18T09:08:46.680Z,-2.90
2022-12-18T09:11:25.565Z,-3.00
2022-12-18T09:13:53.247Z,-2.80
2022-12-18T09:16:20.723Z,-2.50
2022-12-18T09:18:48.095Z,-2.60
2022-12-18T09:21:17.562Z,-2.80
2022-12-18T09:23:44.835Z,-2.60
2022-12-18T09:26:11.801Z,-2.40
2022-12-18T09:28:38.900Z,-2.50
2022-12-18T09:31:08.655Z,-2.70
2022-12-18T09:33:37.130Z,-2.60
2022-12-18T09:36:05.716Z,-2.20
2022-12-18T09:38:32.766Z,-2.10
2022-12-18T09:41:05.737Z,-2.20
2022-12-18T09:43:49.438Z,-2.10
2022-12-18T09:46:22.779Z,-1.60
2022-12-18T09:48:53.357Z,-1.30
2022-12-18T09:51:23.044Z,-1.90
2022-12-18T09:53:59.382Z,-2.10
2022-12-18T09:56:29.300Z,-1.80
2022-12-18T09:59:04.622Z,-1.60
2022-12-18T10:01:43.392Z,-1.40
2022-12-18T10:04:12.374Z,-0.70
2022-12-18T10:07:08.884Z,-1.20
2022-12-18T10:10:02.831Z,-1.40
2022-12-18T10:13:04.917Z,-1.40
2022-12-18T10:15:35.661Z,-0.70
2022-12-18T10:18:22.163Z,-0.10
2022-12-18T10:20:55.670Z,1.70
2022-12-18T10:23:36.852Z,3.10
2022-12-18T10:26:11.772Z,1.90
2022-12-18T10:28:41.478Z,3.10
2022-12-18T10:31:18.174Z,4.00
2022-12-18T10:33:45.148Z,4.40
2022-12-18T10:36:12.009Z,2.30
2022-12-18T10:38:39.876Z,3.10
2022-12-18T10:41:10.549Z,4.00
2022-12-18T10:43:40.818Z,3.20
2022-12-18T10:46:10.472Z,3.40
2022-12-18T10:48:57.800Z,3.10
2022-12-18T10:51:34.569Z,3.90
2022-12-18T10:54:03.044Z,3.70
2022-12-18T10:56:34.234Z,4.20
2022-12-18T10:59:20.062Z,4.20
2022-12-18T11:01:49.499Z,3.90
2022-12-18T11:04:25.048Z,4.10
2022-12-18T11:07:06.670Z,4.10
2022-12-18T11:09:37.874Z,4.70
2022-12-18T11:12:23.546Z,5.70
2022-12-18T11:14:58.638Z,4.40
2022-12-18T11:17:35.907Z,5.30
2022-12-18T11:20:06.714Z,4.10
2022-12-18T11:22:35.729Z,4.40
2022-12-18T11:27:57.067Z,4.40
2022-12-18T11:30:25.339Z,4.60
2022-12-18T11:33:15.794Z,5.30
2022-12-18T11:35:51.789Z,4.60
2022-12-18T11:38:24.276Z,3.60
2022-12-18T11:40:58.447Z,3.60
2022-12-18T11:43:53.858Z,3.90
2022-12-18T11:46:26.467Z,4.90
2022-12-18T11:49:07.335Z,5.00
2022-12-18T11:51:47.885Z,5.70
2022-12-18T11:54:16.412Z,5.60
2022-12-18T11:56:58.575Z,5.50
2022-12-18T11:59:35.454Z,5.60
2022-12-18T12:02:43.646Z,5.10
2022-12-18T12:05:35.361Z,4.80
2022-12-18T12:08:27.009Z,5.20
2022-12-18T12:11:28.398Z,5.10
2022-12-18T12:14:29.412Z,6.40
2022-12-18T12:17:08.298Z,6.00
2022-12-18T12:20:15.658Z,4.70
2022-12-18T12:22:58.138Z,5.30
2022-12-18T12:25:35.530Z,6.20
2022-12-18T12:28:29.364Z,4.50
2022-12-18T12:31:19.742Z,4.00
2022-12-18T12:34:16.983Z,4.50
2022-12-18T12:37:02.511Z,3.00
2022-12-18T12:39:41.749Z,3.90
2022-12-18T12:42:43.596Z,3.70
2022-12-18T12:45:19.309Z,3.70
2022-12-18T12:47:48.127Z,3.60
2022-12-18T12:50:18.335Z,3.80
2022-12-18T12:52:47.291Z,3.00
2022-12-18T12:55:24.796Z,3.40
2022-12-18T12:58:23.975Z,3.80
2022-12-18T13:01:00.980Z,4.40
2022-12-18T13:03:54.883Z,2.80
2022-12-18T13:06:48.649Z,2.60
2022-12-18T13:09:15.548Z,2.60
2022-12-18T13:12:02.306Z,3.00
2022-12-18T13:14:35.832Z,3.30
2022-12-18T13:17:20.888Z,3.10
2022-12-18T13:20:13.315Z,3.40
2022-12-18T13:22:51.260Z,2.80
2022-12-18T13:25:31.860Z,2.80
2022-12-18T13:28:10.513Z,2.90
2022-12-18T13:30:37.154Z,2.60
2022-12-18T13:33:17.009Z,3.10
2022-12-18T13:35:47.585Z,3.30
2022-12-18T13:38:32.380Z,3.50
2022-12-18T13:41:07.066Z,3.30
2022-12-18T13:43:43.907Z,2.80
2022-12-18T13:46:30.836Z,3.00
2022-12-18T13:49:04.044Z,3.90
2022-12-18T13:51:33.981Z,2.80
2022-12-18T13:54:20.884Z,2.90
2022-12-18T13:57:27.297Z,2.80
2022-12-18T13:59:54.041Z,2.80
2022-12-18T14:02:27.274Z,2.80
2022-12-18T14:04:54.609Z,2.70
2022-12-18T14:07:27.197Z,2.50
2022-12-18T14:13:00.700Z,2.30
2022-12-18T14:15:48.842Z,3.10
2022-12-18T14:18:32.582Z,3.40
2022-12-18T14:21:01.623Z,3.40
2022-12-18T14:23:43.535Z,3.10
2022-12-18T14:26:30.045Z,2.90
2022-12-18T14:28:58.901Z,3.00
2022-12-18T14:31:27.975Z,3.00
2022-12-18T14:33:55.052Z,3.70
2022-12-18T14:36:25.309Z,3.20
2022-12-18T14:38:54.852Z,2.90
2022-12-18T14:41:22.379Z,3.60
2022-12-18T14:43:53.906Z,3.50
2022-12-18T14:46:31.841Z,2.40
2022-12-18T14:48:59.268Z,2.80
2022-12-18T14:51:32.073Z,2.30
2022-12-18T14:54:04.169Z,2.30
2022-12-18T14:56:37.122Z,2.20
2022-12-18T14:59:12.908Z,2.50
2022-12-18T15:01:48.915Z,2.80
2022-12-18T15:04:36.126Z,2.50
2022-12-18T15:07:23.132Z,3.30
2022-12-18T15:10:14.565Z,1.90
2022-12-18T15:12:44.280Z,2.20
2022-12-18T15:15:39.091Z,2.10
2022-12-18T15:18:09.519Z,2.10
2022-12-18T15:20:57.113Z,2.20
2022-12-18T15:23:44.838Z,2.70
2022-12-18T15:26:14.192Z,2.20
2022-12-18T15:28:57.056Z,1.70
2022-12-18T15:31:32.792Z,1.90
2022-12-18T15:34:23.298Z,2.10
2022-12-18T15:36:51.940Z,2.80
2022-12-18T15:39:18.786Z,2.40
2022-12-18T15:42:05.498Z,2.10
2022-12-18T15:44:32.544Z,2.80
2022-12-18T15:46:59.694Z,3.30
2022-12-18T15:49:26.430Z,2.70
2022-12-18T15:51:57.419Z,1.90
2022-12-18T15:54:44.178Z,2.90
2022-12-18T15:57:23.948Z,2.80
2022-12-18T15:59:53.583Z,3.50
2022-12-18T16:02:21.612Z,3.30
2022-12-18T16:04:53.168Z,3.50
2022-12-18T16:07:25.076Z,3.20
2022-12-18T16:09:52.832Z,2.20
2022-12-18T16:12:25.049Z,2.50
2022-12-18T16:14:51.863Z,2.70
2022-12-18T16:17:18.807Z,2.80
2022-12-18T16:19:45.675Z,2.40
2022-12-18T16:22:23.989Z,2.30
2022-12-18T16:24:52.129Z,2.40
2022-12-18T16:27:20.640Z,2.70
2022-12-18T16:29:47.471Z,3.00
2022-12-18T16:32:17.580Z,2.50
2022-12-18T16:34:44.676Z,2.40
2022-12-18T16:37:13.610Z,3.10
2022-12-18T16:39:42.398Z,3.90
2022-12-18T16:42:20.539Z,3.00
2022-12-18T16:44:53.747Z,4.40
2022-12-18T16:47:20.500Z,2.90
2022-12-18T16:49:47.413Z,3.30
2022-12-18T16:52:14.838Z,5.80
2022-12-18T16:54:42.655Z,3.00
2022-12-18T16:57:13.070Z,4.30
2022-12-18T16:59:39.781Z,3.80
2022-12-18T17:02:15.602Z,3.70
2022-12-18T17:04:44.664Z,3.60
2022-12-18T17:07:11.432Z,3.60
2022-12-18T17:09:39.368Z,5.20
2022-12-18T17:12:06.518Z,4.30
2022-12-18T17:14:34.172Z,2.90
2022-12-18T17:17:20.769Z,4.80
2022-12-18T17:19:47.857Z,4.70
2022-12-18T17:22:14.596Z,4.00
2022-12-18T17:24:41.246Z,4.10
2022-12-18T17:27:08.880Z,4.90
2022-12-18T17:29:35.872Z,5.80
2022-12-18T17:32:02.597Z,6.40
2022-12-18T17:34:29.936Z,6.50
2022-12-18T17:36:57.261Z,4.80
2022-12-18T17:39:23.924Z,4.90
2022-12-18T17:41:50.723Z,5.80
2022-12-18T17:44:18.387Z,5.90
2022-12-18T17:46:46.196Z,5.70
2022-12-18T17:49:14.060Z,4.80
2022-12-18T17:51:42.898Z,5.40
2022-12-18T17:54:10.507Z,4.80
2022-12-18T17:56:39.178Z,6.80
2022-12-18T17:59:06.958Z,5.70
2022-12-18T18:01:33.985Z,5.60
2022-12-18T18:04:02.024Z,6.90
2022-12-18T18:06:28.973Z,6.80
2022-12-18T18:08:57.558Z,8.30
2022-12-18T18:11:43.395Z,7.10
2022-12-18T18:14:17.768Z,6.40
2022-12-18T18:16:48.136Z,5.30
2022-12-18T18:19:20.303Z,2.40
2022-12-18T18:21:48.718Z,1.80
2022-12-18T18:24:19.440Z,1.50
2022-12-18T18:26:47.060Z,1.20
2022-12-18T18:29:19.394Z,1.30
2022-12-18T18:31:49.071Z,1.70
2022-12-18T18:34:20.507Z,3.00
2022-12-18T18:36:47.239Z,3.80
2022-12-18T18:39:14.908Z,4.50
2022-12-18T18:41:42.169Z,4.30
2022-12-18T18:44:13.814Z,4.10
2022-12-18T18:46:41.551Z,4.10
2022-12-18T18:49:08.337Z,4.90
2022-12-18T18:51:35.483Z,4.30
2022-12-18T18:54:02.672Z,4.90
2022-12-18T18:59:17.552Z,4.20
2022-12-18T19:01:45.622Z,4.60
2022-12-18T19:04:12.482Z,5.80
2022-12-18T19:06:39.291Z,5.70
2022-12-18T19:09:06.703Z,5.30
2022-12-18T19:11:53.427Z,5.50
2022-12-18T19:14:23.578Z,4.70
2022-12-18T19:16:50.537Z,5.10
2022-12-18T19:19:21.037Z,5.20
2022-12-18T19:21:48.297Z,5.30
2022-12-18T19:24:18.278Z,5.50
2022-12-18T19:26:45.022Z,5.40
2022-12-18T19:29:12.429Z,4.60
2022-12-18T19:31:39.234Z,5.80
2022-12-18T19:34:07.143Z,5.10
2022-12-18T19:36:35.746Z,5.70
2022-12-18T19:39:09.498Z,5.60
2022-12-18T19:41:36.245Z,5.80
2022-12-18T19:44:07.845Z,6.20
2022-12-18T19:46:35.748Z,5.40
2022-12-18T19:49:02.781Z,5.60
2022-12-18T19:51:31.347Z,5.20
2022-12-18T19:54:01.419Z,6.90
2022-12-18T19:56:31.993Z,6.40
2022-12-18T19:58:59.270Z,5.60
2022-12-18T20:01:27.210Z,5.90
2022-12-18T20:03:55.951Z,5.10
2022-12-18T20:06:31.400Z,6.10
2022-12-18T20:09:06.815Z,5.70
2022-12-18T20:11:38.874Z,5.30
2022-12-18T20:14:11.159Z,5.50
2022-12-18T20:16:38.563Z,5.30
2022-12-18T20:19:05.906Z,5.20
2022-12-18T20:21:33.217Z,6.80
2022-12-18T20:24:02.044Z,6.20
2022-12-18T20:26:29.137Z,5.80
2022-12-18T20:28:57.956Z,6.10
2022-12-18T20:31:25.071Z,5.40
2022-12-18T20:33:53.381Z,5.30
2022-12-18T20:36:26.015Z,5.70
2022-12-18T20:38:58.263Z,6.30
2022-12-18T20:41:37.565Z,6.00
2022-12-18T20:44:22.306Z,5.30
2022-12-18T20:46:53.050Z,4.80
2022-12-18T20:49:21.618Z,5.00
2022-12-18T20:51:53.993Z,4.90
2022-12-18T20:54:22.502Z,5.50
2022-12-18T20:56:49.329Z,4.70
2022-12-18T20:59:16.417Z,5.70
2022-12-18T21:01:45.268Z,5.50
2022-12-18T21:04:18.052Z,4.90
2022-12-18T21:06:52.408Z,4.40
2022-12-18T21:09:21.263Z,4.60
2022-12-18T21:12:06.816Z,4.50
2022-12-18T21:14:33.923Z,4.60
2022-12-18T21:17:04.399Z,6.50
2022-12-18T21:19:32.610Z,6.80
2022-12-18T21:21:59.334Z,6.30
2022-12-18T21:24:26.648Z,5.40
2022-12-18T21:26:55.814Z,5.30
2022-12-18T21:29:25.103Z,8.80
2022-12-18T21:31:54.363Z,8.30
2022-12-18T21:34:26.488Z,3.70
2022-12-18T21:36:54.581Z,3.20
2022-12-18T21:39:21.919Z,3.20
2022-12-18T21:42:09.850Z,2.80
2022-12-18T21:44:41.590Z,2.80
2022-12-18T21:47:22.111Z,3.40
2022-12-18T21:49:50.647Z,3.20
2022-12-18T21:52:17.255Z,2.90
2022-12-18T21:54:44.010Z,3.60
2022-12-18T21:57:15.153Z,2.80
2022-12-18T21:59:54.105Z,3.10
2022-12-18T22:02:27.915Z,3.10
2022-12-18T22:04:54.690Z,2.70
2022-12-18T22:07:27.250Z,2.20
2022-12-18T22:10:02.224Z,2.80
2022-12-18T22:12:35.700Z,3.90
2022-12-18T22:15:06.530Z,3.80
2022-12-18T22:17:34.462Z,3.50
2022-12-18T22:20:01.153Z,2.30
2022-12-18T22:22:27.918Z,2.90
2022-12-18T22:25:00.000Z,3.10
2022-12-18T22:27:26.661Z,2.90
2022-12-18T22:30:05.566Z,3.30
2022-12-18T22:32:36.218Z,2.30
2022-12-18T22:35:09.424Z,2.60
2022-12-18T22:37:44.273Z,2.00
2022-12-18T22:40:24.140Z,3.10
2022-12-18T22:42:52.689Z,2.70
2022-12-18T22:45:19.632Z,2.70
2022-12-18T22:47:46.286Z,3.20
2022-12-18T22:50:14.177Z,2.60
2022-12-18T22:52:41.746Z,3.00
2022-12-18T22:55:09.100Z,5.40
2022-12-18T22:57:35.747Z,3.10
2022-12-18T23:00:04.630Z,3.60
2022-12-18T23:02:32.460Z,2.70
2022-12-18T23:04:59.399Z,2.60
2022-12-18T23:07:26.049Z,2.90
2022-12-18T23:09:59.548Z,2.60
2022-12-18T23:12:28.180Z,2.10
2022-12-18T23:14:55.097Z,2.50
2022-12-18T23:17:21.790Z,2.10
2022-12-18T23:19:49.412Z,2.20
2022-12-18T23:22:17.564Z,2.90
2022-12-18T23:24:44.242Z,3.00
2022-12-18T23:27:11.892Z,3.60
2022-12-18T23:29:39.421Z,2.70
2022-12-18T23:32:06.536Z,3.80
2022-12-18T23:34:33.210Z,3.00
2022-12-18T23:37:01.054Z,5.80
2022-12-18T23:39:28.655Z,3.90
2022-12-18T23:41:56.478Z,3.30
2022-12-18T23:44:24.263Z,3.30
2022-12-18T23:46:50.955Z,3.60
2022-12-18T23:49:17.661Z,4.30
2022-12-18T23:51:44.312Z,4.10
2022-12-18T23:54:11.015Z,4.70
2022-12-18T23:56:37.723Z,3.60
2022-12-18T23:59:04.454Z,4.70
